createdAt,value
2024-03-08T00:00:07.868Z,631.57
2024-03-08T00:01:14.668Z,628.37
2024-03-08T00:02:21.514Z,627.53
2024-03-08T00:03:28.331Z,625.23
2024-03-08T00:04:35.193Z,600.40
2024-03-08T00:05:42.073Z,619.30
2024-03-08T00:06:48.898Z,616.90
2024-03-08T00:07:55.695Z,616.20
2024-03-08T00:09:02.602Z,648.43
2024-03-08T00:10:09.483Z,608.27
2024-03-08T00:11:16.370Z,625.40
2024-03-08T00:12:23.251Z,622.27
2024-03-08T00:13:30.186Z,615.40
2024-03-08T00:14:37.031Z,592.97
2024-03-08T00:15:43.937Z,613.17
2024-03-08T00:16:50.784Z,617.13
2024-03-08T00:17:57.709Z,619.37
2024-03-08T00:19:04.592Z,625.33
2024-03-08T00:20:11.471Z,608.60
2024-03-08T00:21:18.331Z,628.47
2024-03-08T00:22:25.234Z,623.07
2024-03-08T00:23:32.196Z,620.77
2024-03-08T00:24:39.022Z,622.93
2024-03-08T00:25:45.843Z,620.07
2024-03-08T00:26:52.781Z,618.40
2024-03-08T00:27:59.641Z,616.53
2024-03-08T00:29:06.479Z,594.90
2024-03-08T00:30:13.330Z,616.83
2024-03-08T00:31:20.179Z,617.37
2024-03-08T00:32:27.040Z,617.93
2024-03-08T00:33:33.917Z,595.63
2024-03-08T00:34:40.829Z,616.90
2024-03-08T00:35:47.668Z,616.67
2024-03-08T00:36:54.456Z,616.37
2024-03-08T00:38:01.343Z,616.43
2024-03-08T00:39:08.307Z,595.70
2024-03-08T00:40:15.299Z,619.33
2024-03-08T00:41:22.130Z,620.27
2024-03-08T00:42:28.956Z,624.80
2024-03-08T00:43:35.820Z,601.93
2024-03-08T00:44:42.720Z,622.67
2024-03-08T00:45:49.512Z,623.03
2024-03-08T00:46:56.314Z,619.20
2024-03-08T00:48:03.234Z,620.30
2024-03-08T00:49:10.278Z,599.77
2024-03-08T00:50:17.149Z,622.40
2024-03-08T00:51:23.974Z,621.40
2024-03-08T00:52:30.815Z,622.70
2024-03-08T00:53:37.685Z,622.97
2024-03-08T00:54:45.119Z,599.20
2024-03-08T00:55:52.043Z,618.80
2024-03-08T00:56:58.888Z,619.70
2024-03-08T00:58:05.727Z,620.97
2024-03-08T00:59:12.592Z,621.23
2024-03-08T01:00:19.512Z,620.73
2024-03-08T01:01:26.428Z,615.00
2024-03-08T01:02:33.210Z,615.63
2024-03-08T01:03:39.982Z,616.87
2024-03-08T01:04:46.847Z,618.37
2024-03-08T01:05:53.745Z,597.50
2024-03-08T01:07:00.741Z,619.53
2024-03-08T01:08:07.731Z,620.30
2024-03-08T01:09:14.559Z,618.47
2024-03-08T01:10:21.368Z,617.73
2024-03-08T01:11:28.305Z,595.77
2024-03-08T01:12:35.173Z,617.50
2024-03-08T01:13:41.959Z,616.10
2024-03-08T01:14:48.780Z,615.43
2024-03-08T01:15:55.668Z,618.43
2024-03-08T01:17:02.636Z,597.13
2024-03-08T01:18:09.575Z,619.67
2024-03-08T01:19:16.471Z,622.13
2024-03-08T01:20:23.253Z,624.20
2024-03-08T01:21:30.020Z,623.37
2024-03-08T01:22:36.907Z,599.70
2024-03-08T01:23:43.811Z,620.93
2024-03-08T01:24:50.639Z,620.57
2024-03-08T01:25:57.442Z,619.63
2024-03-08T01:27:04.308Z,621.23
2024-03-08T01:28:11.172Z,600.20
2024-03-08T01:29:18.028Z,624.30
2024-03-08T01:30:24.788Z,624.03
2024-03-08T01:31:31.614Z,624.40
2024-03-08T01:32:38.572Z,622.80
2024-03-08T01:33:45.571Z,620.67
2024-03-08T01:34:52.523Z,619.03
2024-03-08T01:35:59.381Z,619.83
2024-03-08T01:37:06.209Z,620.03
2024-03-08T01:38:12.993Z,616.53
2024-03-08T01:39:19.812Z,613.97
2024-03-08T01:40:26.639Z,592.50
2024-03-08T01:41:33.545Z,617.27
2024-03-08T01:42:40.380Z,615.50
2024-03-08T01:43:47.179Z,618.67
2024-03-08T01:44:54.038Z,621.13
2024-03-08T01:46:00.847Z,601.60
2024-03-08T01:47:07.649Z,622.23
2024-03-08T01:48:14.579Z,620.97
2024-03-08T01:49:21.405Z,621.07
2024-03-08T01:50:28.273Z,621.67
2024-03-08T01:51:35.100Z,598.23
2024-03-08T01:52:41.933Z,619.60
2024-03-08T01:53:48.847Z,623.10
2024-03-08T01:54:55.746Z,626.87
2024-03-08T01:56:02.652Z,626.93
2024-03-08T01:57:09.567Z,600.97
2024-03-08T01:58:16.394Z,623.07
2024-03-08T01:59:23.160Z,623.87
2024-03-08T02:00:30.009Z,621.30
2024-03-08T02:01:36.773Z,623.13
2024-03-08T02:02:43.584Z,622.93
2024-03-08T02:03:50.431Z,603.80
2024-03-08T02:04:57.222Z,624.60
2024-03-08T02:06:04.076Z,624.10
2024-03-08T02:07:11.469Z,621.90
2024-03-08T02:08:18.441Z,602.13
2024-03-08T02:09:25.269Z,624.13
2024-03-08T02:10:32.056Z,620.73
2024-03-08T02:11:39.010Z,619.43
2024-03-08T02:12:45.956Z,621.73
2024-03-08T02:13:52.815Z,602.43
2024-03-08T02:14:59.637Z,626.67
2024-03-08T02:16:06.427Z,625.90
2024-03-08T02:17:13.304Z,624.57
2024-03-08T02:18:20.243Z,623.40
2024-03-08T02:19:27.143Z,623.73
2024-03-08T02:20:33.963Z,625.13
2024-03-08T02:21:40.820Z,622.60
2024-03-08T02:22:47.631Z,622.37
2024-03-08T02:23:54.521Z,623.47
2024-03-08T02:25:01.312Z,623.73
2024-03-08T02:26:08.092Z,624.87
2024-03-08T02:27:14.912Z,605.00
2024-03-08T02:28:21.736Z,625.80
2024-03-08T02:29:28.645Z,621.17
2024-03-08T02:30:35.527Z,622.27
2024-03-08T02:31:42.370Z,623.73
2024-03-08T02:32:49.221Z,626.17
2024-03-08T02:33:56.114Z,603.13
2024-03-08T02:35:03.016Z,624.77
2024-03-08T02:36:09.905Z,625.67
2024-03-08T02:37:16.761Z,625.43
2024-03-08T02:38:23.613Z,622.77
2024-03-08T02:39:30.414Z,600.23
2024-03-08T02:40:37.306Z,624.43
2024-03-08T02:41:44.225Z,622.13
2024-03-08T02:42:50.989Z,620.97
2024-03-08T02:43:57.808Z,620.33
2024-03-08T02:45:04.658Z,619.40
2024-03-08T02:46:11.492Z,621.77
2024-03-08T02:47:18.315Z,598.20
2024-03-08T02:48:25.218Z,618.90
2024-03-08T02:49:32.067Z,619.17
2024-03-08T02:50:38.906Z,619.70
2024-03-08T02:51:45.727Z,620.20
2024-03-08T02:52:52.489Z,596.67
2024-03-08T02:53:59.321Z,617.23
2024-03-08T02:55:06.107Z,617.13
2024-03-08T02:56:12.977Z,618.37
2024-03-08T02:57:19.887Z,620.30
2024-03-08T02:58:26.752Z,597.53
2024-03-08T02:59:33.582Z,621.63
2024-03-08T03:00:40.870Z,621.10
2024-03-08T03:01:47.783Z,619.67
2024-03-08T03:02:54.750Z,618.20
2024-03-08T03:04:01.610Z,616.67
2024-03-08T03:05:08.412Z,614.60
2024-03-08T03:06:15.239Z,612.77
2024-03-08T03:07:22.072Z,593.73
2024-03-08T03:08:28.894Z,616.73
2024-03-08T03:09:35.680Z,617.27
2024-03-08T03:10:42.640Z,616.80
2024-03-08T03:11:49.517Z,615.50
2024-03-08T03:12:56.316Z,613.73
2024-03-08T03:14:03.128Z,611.57
2024-03-08T03:15:10.108Z,611.03
2024-03-08T03:16:17.002Z,610.43
2024-03-08T03:17:23.823Z,587.73
2024-03-08T03:18:30.678Z,622.53
2024-03-08T03:19:37.513Z,620.47
2024-03-08T03:20:44.941Z,618.43
2024-03-08T03:21:51.921Z,619.70
2024-03-08T03:22:58.785Z,618.83
2024-03-08T03:24:05.735Z,617.93
2024-03-08T03:25:12.707Z,620.33
2024-03-08T03:26:19.579Z,623.50
2024-03-08T03:27:26.327Z,624.47
2024-03-08T03:28:33.145Z,620.77
2024-03-08T03:29:39.957Z,617.70
2024-03-08T03:30:46.754Z,616.87
2024-03-08T03:31:53.601Z,597.20
2024-03-08T03:33:00.455Z,624.13
2024-03-08T03:34:07.278Z,622.43
2024-03-08T03:35:14.114Z,621.27
2024-03-08T03:36:21.046Z,619.60
2024-03-08T03:37:27.869Z,619.57
2024-03-08T03:38:34.684Z,622.33
2024-03-08T03:39:41.484Z,621.47
2024-03-08T03:40:48.278Z,620.30
2024-03-08T03:41:55.123Z,622.73
2024-03-08T03:43:01.989Z,621.13
2024-03-08T03:44:08.813Z,620.13
2024-03-08T03:45:15.678Z,616.87
2024-03-08T03:46:22.441Z,618.00
2024-03-08T03:47:29.292Z,618.40
2024-03-08T03:48:36.202Z,616.17
2024-03-08T03:49:42.962Z,614.17
2024-03-08T03:50:49.836Z,613.40
2024-03-08T03:51:56.605Z,614.73
2024-03-08T03:53:03.465Z,612.37
2024-03-08T03:54:10.282Z,589.27
2024-03-08T03:55:17.080Z,613.73
2024-03-08T03:56:23.926Z,613.83
2024-03-08T03:57:30.718Z,617.47
2024-03-08T03:58:37.561Z,616.07
2024-03-08T03:59:44.439Z,615.03
2024-03-08T04:00:51.256Z,616.23
2024-03-08T04:01:58.061Z,594.93
2024-03-08T04:03:04.921Z,619.33
2024-03-08T04:04:11.709Z,619.23
2024-03-08T04:05:18.581Z,619.03
2024-03-08T04:06:25.502Z,618.57
2024-03-08T04:07:32.303Z,596.20
2024-03-08T04:08:39.141Z,620.37
2024-03-08T04:09:45.948Z,618.33
2024-03-08T04:10:52.764Z,621.10
2024-03-08T04:11:59.674Z,622.50
2024-03-08T04:13:06.497Z,622.17
2024-03-08T04:14:13.293Z,618.07
2024-03-08T04:15:20.112Z,619.90
2024-03-08T04:16:26.925Z,619.53
2024-03-08T04:17:33.811Z,622.30
2024-03-08T04:18:40.689Z,623.43
2024-03-08T04:19:47.499Z,601.13
2024-03-08T04:20:54.348Z,622.00
2024-03-08T04:22:01.127Z,619.43
2024-03-08T04:23:07.940Z,616.43
2024-03-08T04:24:14.818Z,616.93
2024-03-08T04:25:21.640Z,615.67
2024-03-08T04:26:28.532Z,594.27
2024-03-08T04:27:35.809Z,617.80
2024-03-08T04:28:42.734Z,617.10
2024-03-08T04:29:49.549Z,618.60
2024-03-08T04:30:56.324Z,599.57
2024-03-08T04:32:03.149Z,622.30
2024-03-08T04:33:10.082Z,621.23
2024-03-08T04:34:16.976Z,621.63
2024-03-08T04:35:23.820Z,622.43
2024-03-08T04:36:30.588Z,595.70
2024-03-08T04:37:37.430Z,617.13
2024-03-08T04:38:44.435Z,618.07
2024-03-08T04:39:51.380Z,617.33
2024-03-08T04:40:58.179Z,619.13
2024-03-08T04:42:06.567Z,599.43
2024-03-08T04:43:13.662Z,622.50
2024-03-08T04:44:20.504Z,622.47
2024-03-08T04:45:27.284Z,619.70
2024-03-08T04:46:34.075Z,616.23
2024-03-08T04:47:41.009Z,615.93
2024-03-08T04:48:48.129Z,594.67
2024-03-08T04:49:55.021Z,618.50
2024-03-08T04:51:01.900Z,620.13
2024-03-08T04:52:08.660Z,618.73
2024-03-08T04:53:15.422Z,596.30
2024-03-08T04:54:22.248Z,618.40
2024-03-08T04:55:29.086Z,620.67
2024-03-08T04:56:35.909Z,622.93
2024-03-08T04:57:42.737Z,625.87
2024-03-08T04:58:49.514Z,604.07
2024-03-08T04:59:56.382Z,625.80
2024-03-08T05:01:03.179Z,621.77
2024-03-08T05:02:09.989Z,619.60
2024-03-08T05:03:16.878Z,618.07
2024-03-08T05:04:23.729Z,594.43
2024-03-08T05:05:30.632Z,616.93
2024-03-08T05:06:37.525Z,617.63
2024-03-08T05:07:44.583Z,613.80
2024-03-08T05:08:51.407Z,608.37
2024-03-08T05:09:58.225Z,581.67
2024-03-08T05:11:05.042Z,599.57
2024-03-08T05:12:11.968Z,597.23
2024-03-08T05:13:18.773Z,597.33
2024-03-08T05:14:25.616Z,596.13
2024-03-08T05:15:32.463Z,573.67
2024-03-08T05:16:39.259Z,590.33
2024-03-08T05:17:46.187Z,591.33
2024-03-08T05:18:53.157Z,592.63
2024-03-08T05:20:00.013Z,571.00
2024-03-08T05:21:06.957Z,594.23
2024-03-08T05:22:13.860Z,600.27
2024-03-08T05:23:20.705Z,600.63
2024-03-08T05:24:27.488Z,601.13
2024-03-08T05:25:34.365Z,581.40
2024-03-08T05:26:41.283Z,605.73
2024-03-08T05:27:48.061Z,605.27
2024-03-08T05:28:54.848Z,605.43
2024-03-08T05:30:01.834Z,608.60
2024-03-08T05:31:08.680Z,614.03
2024-03-08T05:32:15.525Z,641.03
2024-03-08T05:33:22.439Z,649.97
2024-03-08T05:34:29.200Z,661.97
2024-03-08T05:35:35.993Z,666.33
2024-03-08T05:36:42.808Z,643.30
2024-03-08T05:37:49.627Z,671.30
2024-03-08T05:38:56.439Z,671.43
2024-03-08T05:40:03.282Z,664.63
2024-03-08T05:41:10.056Z,648.43
2024-03-08T05:42:17.046Z,639.10
2024-03-08T05:43:23.900Z,637.00
2024-03-08T05:44:30.738Z,609.87
2024-03-08T05:45:37.540Z,624.37
2024-03-08T05:46:44.387Z,619.57
2024-03-08T05:47:51.300Z,620.63
2024-03-08T05:48:58.346Z,622.80
2024-03-08T05:50:05.282Z,606.37
2024-03-08T05:51:12.177Z,600.47
2024-03-08T05:52:18.971Z,617.40
2024-03-08T05:53:25.826Z,611.30
2024-03-08T05:54:32.637Z,612.60
2024-03-08T05:55:39.446Z,615.20
2024-03-08T05:56:46.557Z,614.80
2024-03-08T05:57:53.466Z,616.40
2024-03-08T05:59:00.291Z,595.77
2024-03-08T06:00:07.139Z,596.77
2024-03-08T06:01:14.028Z,623.07
2024-03-08T06:02:20.874Z,623.97
2024-03-08T06:03:27.700Z,623.70
2024-03-08T06:04:34.573Z,623.87
2024-03-08T06:05:41.396Z,623.47
2024-03-08T06:06:51.420Z,620.47
2024-03-08T06:07:59.646Z,620.27
2024-03-08T06:09:06.559Z,595.50
2024-03-08T06:10:13.481Z,625.67
2024-03-08T06:11:20.317Z,627.97
2024-03-08T06:12:27.162Z,621.17
2024-03-08T06:13:33.986Z,616.27
2024-03-08T06:14:40.798Z,606.03
2024-03-08T06:15:47.636Z,618.17
2024-03-08T06:16:54.483Z,621.43
2024-03-08T06:18:01.450Z,598.33
2024-03-08T06:19:08.408Z,620.60
2024-03-08T06:20:15.415Z,618.30
2024-03-08T06:21:22.566Z,620.97
2024-03-08T06:22:29.446Z,600.70
2024-03-08T06:23:36.210Z,597.90
2024-03-08T06:24:43.000Z,619.23
2024-03-08T06:25:49.847Z,620.40
2024-03-08T06:26:56.692Z,619.23
2024-03-08T06:28:03.445Z,619.97
2024-03-08T06:29:10.290Z,620.93
2024-03-08T06:30:17.445Z,625.93
2024-03-08T06:31:24.400Z,607.60
2024-03-08T06:32:31.336Z,628.53
2024-03-08T06:33:38.239Z,628.70
2024-03-08T06:34:45.044Z,625.97
2024-03-08T06:35:51.874Z,626.40
2024-03-08T06:36:58.770Z,626.27
2024-03-08T06:38:05.598Z,605.73
2024-03-08T06:39:12.484Z,627.90
2024-03-08T06:40:19.367Z,625.57
2024-03-08T06:41:26.176Z,622.80
2024-03-08T06:42:32.971Z,620.43
2024-03-08T06:43:39.845Z,619.67
2024-03-08T06:44:46.668Z,595.00
2024-03-08T06:45:53.521Z,616.33
2024-03-08T06:47:01.133Z,615.20
2024-03-08T06:48:08.178Z,594.70
2024-03-08T06:49:15.005Z,616.97
2024-03-08T06:50:21.799Z,620.13
2024-03-08T06:51:28.595Z,621.50
2024-03-08T06:52:35.392Z,624.23
2024-03-08T06:53:42.209Z,601.57
2024-03-08T06:54:49.095Z,622.40
2024-03-08T06:55:55.883Z,622.17
2024-03-08T06:57:02.711Z,622.13
2024-03-08T06:58:09.602Z,619.20
2024-03-08T06:59:16.378Z,616.40
2024-03-08T07:00:23.279Z,614.97
2024-03-08T07:01:30.110Z,617.20
2024-03-08T07:02:36.952Z,618.90
2024-03-08T07:03:43.708Z,618.40
2024-03-08T07:04:50.499Z,593.47
2024-03-08T07:05:57.355Z,614.03
2024-03-08T07:07:04.182Z,613.47
2024-03-08T07:08:10.950Z,614.80
2024-03-08T07:09:17.958Z,614.57
2024-03-08T07:10:24.825Z,595.93
2024-03-08T07:11:31.738Z,619.30
2024-03-08T07:12:38.535Z,620.17
2024-03-08T07:13:45.323Z,623.30
2024-03-08T07:14:52.255Z,622.27
2024-03-08T07:15:58.998Z,601.00
2024-03-08T07:17:07.493Z,622.87
2024-03-08T07:18:14.467Z,624.07
2024-03-08T07:19:21.301Z,621.67
2024-03-08T07:20:28.126Z,622.93
2024-03-08T07:21:34.938Z,624.13
2024-03-08T07:22:41.807Z,603.20
2024-03-08T07:23:48.636Z,623.23
2024-03-08T07:24:55.418Z,619.87
2024-03-08T07:26:02.228Z,620.40
2024-03-08T07:27:09.078Z,622.03
2024-03-08T07:28:15.899Z,601.10
2024-03-08T07:29:22.729Z,623.20
2024-03-08T07:30:30.217Z,624.57
2024-03-08T07:31:37.120Z,624.17
2024-03-08T07:32:43.997Z,624.93
2024-03-08T07:33:51.005Z,624.07
2024-03-08T07:34:57.986Z,623.60
2024-03-08T07:36:04.810Z,598.33
2024-03-08T07:37:11.579Z,620.77
2024-03-08T07:38:18.441Z,622.57
2024-03-08T07:39:25.270Z,627.20
2024-03-08T07:40:32.070Z,628.03
2024-03-08T07:41:38.841Z,605.93
2024-03-08T07:42:45.625Z,629.00
2024-03-08T07:43:52.446Z,625.57
2024-03-08T07:44:59.287Z,625.40
2024-03-08T07:46:06.093Z,624.23
2024-03-08T07:47:12.844Z,598.17
2024-03-08T07:48:19.653Z,618.30
2024-03-08T07:49:26.448Z,618.47
2024-03-08T07:50:33.326Z,619.67
2024-03-08T07:51:40.119Z,618.30
2024-03-08T07:52:46.963Z,595.30
2024-03-08T07:53:53.767Z,621.13
2024-03-08T07:55:00.561Z,624.10
2024-03-08T07:56:07.383Z,627.80
2024-03-08T07:57:14.119Z,627.87
2024-03-08T07:58:21.071Z,604.73
2024-03-08T07:59:27.970Z,626.20
2024-03-08T08:00:34.783Z,628.27
2024-03-08T08:01:41.693Z,631.03
2024-03-08T08:02:48.560Z,609.57
2024-03-08T08:03:55.321Z,631.13
2024-03-08T08:05:02.161Z,630.03
2024-03-08T08:06:08.902Z,629.80
2024-03-08T08:07:15.887Z,629.50
2024-03-08T08:08:22.728Z,606.93
2024-03-08T08:09:29.649Z,628.63
2024-03-08T08:10:36.601Z,627.67
2024-03-08T08:11:43.374Z,628.50
2024-03-08T08:12:50.194Z,625.47
2024-03-08T08:13:56.976Z,604.87
2024-03-08T08:15:03.741Z,626.97
2024-03-08T08:16:10.544Z,625.13
2024-03-08T08:17:17.389Z,624.10
2024-03-08T08:18:24.240Z,626.73
2024-03-08T08:19:31.054Z,604.50
2024-03-08T08:20:37.825Z,627.90
2024-03-08T08:21:44.620Z,630.40
2024-03-08T08:22:51.492Z,631.23
2024-03-08T08:23:58.439Z,607.50
2024-03-08T08:25:05.242Z,628.67
2024-03-08T08:26:12.025Z,629.17
2024-03-08T08:27:18.829Z,627.57
2024-03-08T08:28:25.742Z,630.47
2024-03-08T08:29:32.531Z,629.37
2024-03-08T08:30:39.322Z,633.07
2024-03-08T08:31:46.532Z,635.40
2024-03-08T08:32:53.443Z,614.50
2024-03-08T08:34:00.223Z,641.57
2024-03-08T08:35:07.162Z,644.10
2024-03-08T08:36:13.944Z,649.33
2024-03-08T08:37:21.959Z,649.60
2024-03-08T08:38:30.309Z,650.53
2024-03-08T08:39:37.080Z,651.33
2024-03-08T08:40:43.941Z,651.77
2024-03-08T08:41:50.748Z,649.77
2024-03-08T08:42:57.569Z,620.73
2024-03-08T08:44:15.013Z,640.33
2024-03-08T08:45:17.823Z,638.10
2024-03-08T08:46:25.546Z,614.90
2024-03-08T08:47:32.340Z,641.07
2024-03-08T08:48:39.146Z,648.13
2024-03-08T08:49:45.948Z,654.13
2024-03-08T08:50:52.702Z,655.43
2024-03-08T08:52:06.370Z,637.90
2024-03-08T08:53:11.256Z,664.77
2024-03-08T08:54:18.022Z,670.63
2024-03-08T08:55:24.849Z,672.73
2024-03-08T08:56:31.620Z,677.53
2024-03-08T08:57:38.417Z,680.17
2024-03-08T08:58:45.283Z,682.93
2024-03-08T08:59:52.049Z,684.70
2024-03-08T09:00:58.890Z,682.37
2024-03-08T09:02:05.921Z,685.07
2024-03-08T09:03:12.839Z,687.17
2024-03-08T09:04:19.668Z,692.73
2024-03-08T09:05:26.451Z,700.37
2024-03-08T09:06:33.196Z,683.63
2024-03-08T09:07:39.996Z,723.47
2024-03-08T09:08:46.900Z,745.17
2024-03-08T09:09:53.785Z,760.77
2024-03-08T09:11:00.653Z,784.47
2024-03-08T09:12:07.550Z,809.40
2024-03-08T09:13:18.682Z,822.87
2024-03-08T09:14:26.059Z,833.97
2024-03-08T09:15:32.892Z,842.53
2024-03-08T09:16:39.744Z,845.00
2024-03-08T09:17:46.585Z,844.03
2024-03-08T09:18:53.400Z,841.77
2024-03-08T09:20:00.316Z,837.57
2024-03-08T09:21:07.118Z,836.23
2024-03-08T09:22:13.931Z,830.33
2024-03-08T09:23:20.751Z,824.67
2024-03-08T09:24:27.552Z,816.63
2024-03-08T09:25:34.440Z,781.27
2024-03-08T09:26:41.282Z,802.73
2024-03-08T09:27:48.097Z,797.13
2024-03-08T09:28:54.957Z,793.77
2024-03-08T09:30:01.776Z,793.10
2024-03-08T09:31:08.604Z,764.73
2024-03-08T09:32:15.401Z,791.47
2024-03-08T09:33:22.206Z,790.50
2024-03-08T09:34:36.493Z,790.63
2024-03-08T09:35:40.674Z,790.17
2024-03-08T09:36:47.474Z,786.10
2024-03-08T09:37:54.353Z,780.07
2024-03-08T09:39:01.138Z,776.30
2024-03-08T09:40:07.927Z,780.13
2024-03-08T09:41:14.740Z,776.67
2024-03-08T09:42:21.592Z,774.13
2024-03-08T09:43:28.376Z,760.23
2024-03-08T09:44:35.167Z,721.93
2024-03-08T09:45:41.989Z,746.37
2024-03-08T09:46:48.768Z,747.17
2024-03-08T09:47:55.717Z,747.27
2024-03-08T09:49:02.519Z,739.73
2024-03-08T09:50:09.308Z,723.80
2024-03-08T09:51:16.459Z,715.13
2024-03-08T09:52:23.264Z,712.83
2024-03-08T09:53:30.089Z,707.67
2024-03-08T09:54:36.893Z,681.33
2024-03-08T09:55:43.792Z,708.77
2024-03-08T09:56:50.667Z,713.43
2024-03-08T09:57:57.439Z,718.63
2024-03-08T09:59:04.350Z,725.73
2024-03-08T10:00:11.148Z,707.33
2024-03-08T10:01:17.999Z,735.73
2024-03-08T10:02:25.099Z,735.07
2024-03-08T10:03:32.037Z,735.00
2024-03-08T10:04:38.960Z,710.93
2024-03-08T10:05:45.866Z,739.80
2024-03-08T10:06:52.634Z,740.20
2024-03-08T10:07:59.422Z,739.07
2024-03-08T10:09:06.200Z,737.87
2024-03-08T10:10:13.171Z,714.07
2024-03-08T10:11:20.217Z,741.67
2024-03-08T10:12:27.036Z,739.07
2024-03-08T10:13:33.844Z,737.30
2024-03-08T10:14:40.657Z,709.93
2024-03-08T10:15:47.614Z,734.33
2024-03-08T10:16:54.433Z,733.17
2024-03-08T10:18:01.265Z,733.00
2024-03-08T10:19:08.028Z,733.67
2024-03-08T10:20:14.824Z,708.80
2024-03-08T10:21:21.616Z,734.30
2024-03-08T10:22:28.502Z,731.33
2024-03-08T10:23:35.372Z,727.13
2024-03-08T10:24:42.247Z,727.63
2024-03-08T10:25:49.114Z,701.13
2024-03-08T10:26:55.921Z,730.90
2024-03-08T10:28:02.749Z,731.27
2024-03-08T10:29:09.596Z,730.17
2024-03-08T10:30:16.434Z,724.07
2024-03-08T10:31:23.214Z,720.50
2024-03-08T10:32:30.054Z,689.47
2024-03-08T10:33:36.879Z,705.60
2024-03-08T10:34:43.805Z,699.03
2024-03-08T10:35:50.556Z,694.63
2024-03-08T10:36:57.323Z,690.63
2024-03-08T10:38:04.184Z,660.50
2024-03-08T10:39:11.037Z,683.13
2024-03-08T10:40:17.849Z,680.03
2024-03-08T10:41:24.625Z,677.97
2024-03-08T10:42:31.416Z,675.73
2024-03-08T10:43:38.428Z,676.33
2024-03-08T10:44:45.245Z,654.93
2024-03-08T10:45:52.050Z,676.83
2024-03-08T10:46:58.901Z,675.27
2024-03-08T10:48:05.773Z,673.93
2024-03-08T10:49:12.638Z,673.40
2024-03-08T10:50:19.540Z,649.20
2024-03-08T10:51:26.325Z,671.60
2024-03-08T10:52:33.250Z,674.73
2024-03-08T10:53:40.158Z,678.73
2024-03-08T10:54:46.969Z,683.47
2024-03-08T10:55:53.844Z,685.40
2024-03-08T10:57:00.625Z,661.77
2024-03-08T10:58:07.417Z,686.10
2024-03-08T10:59:14.203Z,684.50
2024-03-08T11:00:21.016Z,683.23
2024-03-08T11:01:27.987Z,683.27
2024-03-08T11:02:34.855Z,680.53
2024-03-08T11:03:41.686Z,654.23
2024-03-08T11:04:48.482Z,676.27
2024-03-08T11:05:55.313Z,672.27
2024-03-08T11:07:02.152Z,670.40
2024-03-08T11:08:08.950Z,671.60
2024-03-08T11:09:15.702Z,673.87
2024-03-08T11:10:22.518Z,651.97
2024-03-08T11:11:33.379Z,651.90
2024-03-08T11:12:41.060Z,674.23
2024-03-08T11:13:48.257Z,682.00
2024-03-08T11:14:55.100Z,682.27
2024-03-08T11:16:01.994Z,687.40
2024-03-08T11:17:08.800Z,689.80
2024-03-08T11:18:15.585Z,686.97
2024-03-08T11:19:22.464Z,683.97
2024-03-08T11:20:29.242Z,684.60
2024-03-08T11:21:36.063Z,682.00
2024-03-08T11:22:42.986Z,654.00
2024-03-08T11:23:49.875Z,671.60
2024-03-08T11:24:56.672Z,665.47
2024-03-08T11:26:03.485Z,665.97
2024-03-08T11:27:10.239Z,667.33
2024-03-08T11:28:17.136Z,667.53
2024-03-08T11:29:23.953Z,646.07
2024-03-08T11:30:30.723Z,674.73
2024-03-08T11:31:37.596Z,677.97
2024-03-08T11:32:44.462Z,679.70
2024-03-08T11:33:51.258Z,680.30
2024-03-08T11:34:58.075Z,684.73
2024-03-08T11:36:07.597Z,662.67
2024-03-08T11:37:16.264Z,668.60
2024-03-08T11:38:23.244Z,697.77
2024-03-08T11:39:30.071Z,700.37
2024-03-08T11:40:36.902Z,697.63
2024-03-08T11:41:43.676Z,695.20
2024-03-08T11:42:50.522Z,672.13
2024-03-08T11:43:57.412Z,700.93
2024-03-08T11:45:04.280Z,700.17
2024-03-08T11:46:11.066Z,700.00
2024-03-08T11:47:18.256Z,701.03
2024-03-08T11:48:25.128Z,701.27
2024-03-08T11:49:31.967Z,700.87
2024-03-08T11:50:38.783Z,701.10
2024-03-08T11:51:45.573Z,702.57
2024-03-08T11:52:52.356Z,700.70
2024-03-08T11:53:59.132Z,673.73
2024-03-08T11:55:05.924Z,697.07
2024-03-08T11:56:12.950Z,695.23
2024-03-08T11:57:19.852Z,695.80
2024-03-08T11:58:26.646Z,696.73
2024-03-08T11:59:33.418Z,672.63
2024-03-08T12:00:40.260Z,696.43
2024-03-08T12:01:47.108Z,694.80
2024-03-08T12:02:53.904Z,694.07
2024-03-08T12:04:00.711Z,692.43
2024-03-08T12:05:07.520Z,691.97
2024-03-08T12:06:14.295Z,666.20
2024-03-08T12:07:21.160Z,690.90
2024-03-08T12:08:27.877Z,691.07
2024-03-08T12:09:34.728Z,690.17
2024-03-08T12:10:41.649Z,688.67
2024-03-08T12:11:48.526Z,690.10
2024-03-08T12:12:55.421Z,666.40
2024-03-08T12:14:02.223Z,690.33
2024-03-08T12:15:09.016Z,691.90
2024-03-08T12:16:15.841Z,691.30
2024-03-08T12:17:22.640Z,692.73
2024-03-08T12:18:29.464Z,691.27
2024-03-08T12:19:36.380Z,690.80
2024-03-08T12:20:43.133Z,693.10
2024-03-08T12:21:50.027Z,690.67
2024-03-08T12:22:56.940Z,690.07
2024-03-08T12:24:03.799Z,688.13
2024-03-08T12:25:10.637Z,683.63
2024-03-08T12:26:17.385Z,656.90
2024-03-08T12:27:24.215Z,654.63
2024-03-08T12:28:31.024Z,676.93
2024-03-08T12:29:37.921Z,675.73
2024-03-08T12:30:44.738Z,673.40
2024-03-08T12:31:51.582Z,671.63
2024-03-08T12:32:58.591Z,645.80
2024-03-08T12:34:05.509Z,668.13
2024-03-08T12:35:12.393Z,667.30
2024-03-08T12:36:19.210Z,669.43
2024-03-08T12:37:26.033Z,670.97
2024-03-08T12:38:33.164Z,673.37
2024-03-08T12:39:40.031Z,672.33
2024-03-08T12:40:46.881Z,670.80
2024-03-08T12:41:53.643Z,668.80
2024-03-08T12:43:00.468Z,668.97
2024-03-08T12:44:07.243Z,643.57
2024-03-08T12:45:14.028Z,644.07
2024-03-08T12:46:20.894Z,669.70
2024-03-08T12:47:27.781Z,670.60
2024-03-08T12:48:34.576Z,669.17
2024-03-08T12:49:41.431Z,673.97
2024-03-08T12:50:48.167Z,654.73
2024-03-08T12:51:55.032Z,681.63
2024-03-08T12:53:02.765Z,686.63
2024-03-08T12:54:09.943Z,693.03
2024-03-08T12:55:16.734Z,701.60
2024-03-08T12:56:23.525Z,715.43
2024-03-08T12:57:30.378Z,770.03
2024-03-08T12:58:37.249Z,802.63
2024-03-08T12:59:44.020Z,770.90
2024-03-08T13:00:54.044Z,708.10
2024-03-08T13:02:01.417Z,668.83
2024-03-08T13:03:08.367Z,684.10
2024-03-08T13:04:15.321Z,674.27
2024-03-08T13:05:22.197Z,675.57
2024-03-08T13:06:29.018Z,654.30
2024-03-08T13:07:35.851Z,680.83
2024-03-08T13:08:42.690Z,681.60
2024-03-08T13:09:49.478Z,681.90
2024-03-08T13:10:56.659Z,683.07
2024-03-08T13:12:03.564Z,679.33
2024-03-08T13:13:10.381Z,672.97
2024-03-08T13:14:17.191Z,668.20
2024-03-08T13:15:24.026Z,662.47
2024-03-08T13:16:30.976Z,655.93
2024-03-08T13:17:37.857Z,652.40
2024-03-08T13:18:44.713Z,656.40
2024-03-08T13:19:51.636Z,669.20
2024-03-08T13:20:58.458Z,681.90
2024-03-08T13:22:05.255Z,664.23
2024-03-08T13:23:12.060Z,695.43
2024-03-08T13:24:18.933Z,697.97
2024-03-08T13:25:25.813Z,698.13
2024-03-08T13:26:32.565Z,695.80
2024-03-08T13:27:39.445Z,689.80
2024-03-08T13:28:46.315Z,662.37
2024-03-08T13:29:53.121Z,688.57
2024-03-08T13:31:02.212Z,691.07
2024-03-08T13:32:10.972Z,694.47
2024-03-08T13:33:17.700Z,700.47
2024-03-08T13:34:24.530Z,705.67
2024-03-08T13:35:31.479Z,712.63
2024-03-08T13:36:38.574Z,716.47
2024-03-08T13:37:45.421Z,715.67
2024-03-08T13:38:52.247Z,709.43
2024-03-08T13:39:59.056Z,703.40
2024-03-08T13:41:06.104Z,692.87
2024-03-08T13:42:13.066Z,663.67
2024-03-08T13:43:19.951Z,678.83
2024-03-08T13:44:26.755Z,672.27
2024-03-08T13:45:33.563Z,667.20
2024-03-08T13:46:40.388Z,656.27
2024-03-08T13:47:47.257Z,647.20
2024-03-08T13:48:54.087Z,613.83
2024-03-08T13:50:00.964Z,635.23
2024-03-08T13:51:07.807Z,632.40
2024-03-08T13:52:14.613Z,625.77
2024-03-08T13:53:21.469Z,620.83
2024-03-08T13:54:28.345Z,617.57